Piedmont Triad International Airport
KGSO : now visible

Airfield :











YOU CAN JOIN US ON...

 
LOGIN :

Register | Disclaimer

   EN    FR    IT 

 









Legend :    VFR   Marginal VFR   IFR   Intensive IFR   Very Intensive IFR
Visi :
Ceiling :
>= 8 km
>= 3000ft
5 to 8 km
1000 to 3000 ft
1500m to 5 km
500 to 1000 ft
800 to 1500m
200 to 500 ft
< 800m
< 200 ft
Symbols :   Thunderstorms  Fog  Heavy snow  Heavy precipitations  Wind > 20 kt






- Airport Elevation : 925 ft
- IATA code : GSO


KGSO - Piedmont Triad International

CURRENT METAR :
  • 201654Z 19006KT 10SM FEW250 23/13 A3025 RMK AO2 SLP239 T02280133

EXPIRED METARs :
  • 201554Z 23007KT 10SM FEW250 22/14 A3026 RMK AO2 SLP242 COLUMN FU NW T02170144
  • 201454Z VRB03KT 10SM FEW250 20/15 A3027 RMK AO2 SLP244 T02000150 51010

TAF KGSO
Valid from the 20 at 12:00 until the 21 at 12:00 UTC


201202Z 2012/2112 00000KT P6SM BKN250
FM201400 VRB03KT P6SM SCT250
FM210900 00000KT 2SM BR BKN004
KZTL FIR / North America



MET'MAP, your aeronautical weather chart ! - Copyright ORBIFLY December 2007 - Disclaimer

ORBIFLY MET'MAP TEAM :

Programming & Development : Alexandra Zaïnal
Concept & original design : Baudouin d'Aumeries
Assistance for programming : Marc-Olivier Méhu
Technical & hardware support : Manuel Goepfert

Contact : metmap@orbifly.com




SOURCES & CREDITS :

   NOAA       Earth
Advisory